sensor_id;sensor_type;location;lat;lon;timestamp;pressure;altitude;pressure_sealevel;temperature;humidity
63097;BME280;49185;42.320;23.198;2023-02-28T00:01:39;95268.06;;;5.49;100.00
63097;BME280;49185;42.320;23.198;2023-02-28T00:04:04;95270.28;;;5.52;100.00
63097;BME280;49185;42.320;23.198;2023-02-28T00:06:30;95268.88;;;5.56;100.00
63097;BME280;49185;42.320;23.198;2023-02-28T00:08:55;95271.72;;;5.55;100.00
63097;BME280;49185;42.320;23.198;2023-02-28T00:11:21;95267.03;;;5.57;100.00
63097;BME280;49185;42.320;23.198;2023-02-28T00:13:46;95274.97;;;5.57;100.00
63097;BME280;49185;42.320;23.198;2023-02-28T00:16:15;95281.66;;;6.06;100.00
63097;BME280;49185;42.320;23.198;2023-02-28T00:18:41;95273.78;;;6.51;96.38
63097;BME280;49185;42.320;23.198;2023-02-28T00:21:07;95274.25;;;6.35;95.26
63097;BME280;49185;42.320;23.198;2023-02-28T00:23:33;95279.59;;;6.08;96.76
63097;BME280;49185;42.320;23.198;2023-02-28T00:25:58;95276.44;;;6.44;96.13
63097;BME280;49185;42.320;23.198;2023-02-28T00:28:24;95281.50;;;6.53;95.23
63097;BME280;49185;42.320;23.198;2023-02-28T00:30:49;95285.41;;;6.37;96.08
63097;BME280;49185;42.320;23.198;2023-02-28T00:33:15;95284.69;;;6.16;97.28
63097;BME280;49185;42.320;23.198;2023-02-28T00:35:40;95289.28;;;6.93;93.72
63097;BME280;49185;42.320;23.198;2023-02-28T00:38:06;95286.91;;;7.10;91.29
63097;BME280;49185;42.320;23.198;2023-02-28T00:40:31;95285.31;;;6.70;92.15
63097;BME280;49185;42.320;23.198;2023-02-28T00:42:57;95281.00;;;6.76;92.67
63097;BME280;49185;42.320;23.198;2023-02-28T00:45:22;95287.94;;;6.70;92.28
63097;BME280;49185;42.320;23.198;2023-02-28T00:47:48;95283.72;;;6.62;92.56
63097;BME280;49185;42.320;23.198;2023-02-28T00:50:13;95286.94;;;5.99;95.54
63097;BME280;49185;42.320;23.198;2023-02-28T00:52:38;95283.50;;;5.65;97.56
63097;BME280;49185;42.320;23.198;2023-02-28T00:55:04;95291.00;;;5.68;98.25
63097;BME280;49185;42.320;23.198;2023-02-28T00:57:30;95296.66;;;5.52;99.13
63097;BME280;49185;42.320;23.198;2023-02-28T00:59:55;95289.97;;;5.49;100.00
63097;BME280;49185;42.320;23.198;2023-02-28T01:02:22;95273.94;;;5.98;98.77
63097;BME280;49185;42.320;23.198;2023-02-28T01:04:48;95285.31;;;5.92;96.77
63097;BME280;49185;42.320;23.198;2023-02-28T01:07:14;95286.53;;;5.56;97.37
63097;BME280;49185;42.320;23.198;2023-02-28T01:09:39;95289.97;;;5.76;97.91
63097;BME280;49185;42.320;23.198;2023-02-28T01:12:07;95287.31;;;5.36;98.54
63097;BME280;49185;42.320;23.198;2023-02-28T01:14:33;95278.56;;;5.22;98.96
63097;BME280;49185;42.320;23.198;2023-02-28T01:16:58;95276.78;;;5.76;98.07
63097;BME280;49185;42.320;23.198;2023-02-28T01:19:24;95274.34;;;5.75;96.36
63097;BME280;49185;42.320;23.198;2023-02-28T01:21:49;95278.38;;;5.24;97.75
63097;BME280;49185;42.320;23.198;2023-02-28T01:24:15;95279.44;;;5.29;99.26
63097;BME280;49185;42.320;23.198;2023-02-28T01:26:40;95279.22;;;5.64;97.56
63097;BME280;49185;42.320;23.198;2023-02-28T01:29:05;95278.00;;;5.27;98.22
63097;BME280;49185;42.320;23.198;2023-02-28T01:31:31;95267.44;;;5.27;99.31
63097;BME280;49185;42.320;23.198;2023-02-28T01:33:56;95257.09;;;5.65;97.55
63097;BME280;49185;42.320;23.198;2023-02-28T01:36:23;95265.63;;;5.21;98.44
63097;BME280;49185;42.320;23.198;2023-02-28T01:38:50;95259.53;;;5.40;98.87
63097;BME280;49185;42.320;23.198;2023-02-28T01:41:27;95269.06;;;5.41;96.71
63097;BME280;49185;42.320;23.198;2023-02-28T01:44:00;95263.34;;;5.11;98.58
63097;BME280;49185;42.320;23.198;2023-02-28T01:46:25;95258.09;;;5.38;96.50
63097;BME280;49185;42.320;23.198;2023-02-28T01:49:00;95272.22;;;4.83;99.12
63097;BME280;49185;42.320;23.198;2023-02-28T01:51:32;95267.50;;;4.59;100.00
63097;BME280;49185;42.320;23.198;2023-02-28T01:54:03;95269.69;;;4.48;99.76
63097;BME280;49185;42.320;23.198;2023-02-28T01:56:33;95284.47;;;4.43;100.00
63097;BME280;49185;42.320;23.198;2023-02-28T01:59:00;95276.31;;;4.31;100.00
63097;BME280;49185;42.320;23.198;2023-02-28T02:01:27;95280.72;;;4.24;100.00
63097;BME280;49185;42.320;23.198;2023-02-28T02:03:59;95270.56;;;4.21;100.00
63097;BME280;49185;42.320;23.198;2023-02-28T02:06:34;95282.09;;;4.13;100.00
63097;BME280;49185;42.320;23.198;2023-02-28T02:09:01;95278.06;;;4.59;100.00
63097;BME280;49185;42.320;23.198;2023-02-28T02:11:27;95279.31;;;4.28;100.00
63097;BME280;49185;42.320;23.198;2023-02-28T02:22:35;95284.03;;;5.07;98.51
63097;BME280;49185;42.320;23.198;2023-02-28T02:38:41;95309.66;;;3.60;97.14
63097;BME280;49185;42.320;23.198;2023-02-28T02:43:51;95294.00;;;4.50;95.00
63097;BME280;49185;42.320;23.198;2023-02-28T02:46:29;95292.44;;;4.14;94.85
63097;BME280;49185;42.320;23.198;2023-02-28T02:48:57;95304.97;;;3.56;97.85
63097;BME280;49185;42.320;23.198;2023-02-28T02:51:26;95304.19;;;3.34;99.05
63097;BME280;49185;42.320;23.198;2023-02-28T02:53:57;95307.63;;;3.34;99.38
63097;BME280;49185;42.320;23.198;2023-02-28T02:56:27;95312.63;;;3.29;99.32
63097;BME280;49185;42.320;23.198;2023-02-28T02:58:58;95314.22;;;3.02;99.86
63097;BME280;49185;42.320;23.198;2023-02-28T03:01:28;95320.34;;;3.31;100.00
63097;BME280;49185;42.320;23.198;2023-02-28T03:04:02;95322.03;;;3.17;100.00
63097;BME280;49185;42.320;23.198;2023-02-28T03:06:28;95318.47;;;3.03;100.00
63097;BME280;49185;42.320;23.198;2023-02-28T03:08:53;95324.03;;;3.36;100.00
63097;BME280;49185;42.320;23.198;2023-02-28T03:11:19;95325.09;;;3.64;99.06
63097;BME280;49185;42.320;23.198;2023-02-28T03:16:33;95316.97;;;3.37;97.89
63097;BME280;49185;42.320;23.198;2023-02-28T03:27:08;95338.75;;;3.09;100.00
63097;BME280;49185;42.320;23.198;2023-02-28T03:29:46;95342.78;;;2.90;100.00
63097;BME280;49185;42.320;23.198;2023-02-28T03:35:00;95341.19;;;2.74;100.00
63097;BME280;49185;42.320;23.198;2023-02-28T03:37:29;95349.28;;;2.73;100.00
63097;BME280;49185;42.320;23.198;2023-02-28T03:40:00;95353.28;;;3.27;100.00
63097;BME280;49185;42.320;23.198;2023-02-28T03:42:29;95352.50;;;3.33;100.00
63097;BME280;49185;42.320;23.198;2023-02-28T03:45:02;95348.56;;;3.22;100.00
63097;BME280;49185;42.320;23.198;2023-02-28T03:47:35;95348.56;;;3.00;100.00
63097;BME280;49185;42.320;23.198;2023-02-28T03:52:33;95340.47;;;4.23;97.37
63097;BME280;49185;42.320;23.198;2023-02-28T03:55:03;95349.84;;;3.97;94.67
63097;BME280;49185;42.320;23.198;2023-02-28T04:00:27;95348.13;;;3.18;98.87
63097;BME280;49185;42.320;23.198;2023-02-28T04:02:55;95345.66;;;3.82;99.39
63097;BME280;49185;42.320;23.198;2023-02-28T04:05:22;95345.66;;;3.82;98.53
63097;BME280;49185;42.320;23.198;2023-02-28T04:07:47;95341.81;;;4.06;98.35
63097;BME280;49185;42.320;23.198;2023-02-28T04:10:15;95344.19;;;4.35;95.22
63097;BME280;49185;42.320;23.198;2023-02-28T04:12:40;95338.94;;;4.01;94.06
63097;BME280;49185;42.320;23.198;2023-02-28T04:15:07;95345.50;;;3.61;97.21
63097;BME280;49185;42.320;23.198;2023-02-28T04:17:32;95350.56;;;3.85;97.77
63097;BME280;49185;42.320;23.198;2023-02-28T04:19:58;95350.25;;;4.01;97.21
63097;BME280;49185;42.320;23.198;2023-02-28T04:22:23;95353.81;;;4.15;96.45
63097;BME280;49185;42.320;23.198;2023-02-28T04:24:49;95358.88;;;3.88;97.45
63097;BME280;49185;42.320;23.198;2023-02-28T04:27:14;95365.38;;;3.92;98.10
63097;BME280;49185;42.320;23.198;2023-02-28T04:29:39;95353.44;;;3.68;98.95
63097;BME280;49185;42.320;23.198;2023-02-28T04:32:05;95356.44;;;4.15;98.65
63097;BME280;49185;42.320;23.198;2023-02-28T04:34:31;95357.66;;;3.91;98.27
63097;BME280;49185;42.320;23.198;2023-02-28T04:36:57;95358.88;;;3.88;98.83
63097;BME280;49185;42.320;23.198;2023-02-28T04:39:24;95362.81;;;3.99;96.92
63097;BME280;49185;42.320;23.198;2023-02-28T04:41:50;95361.34;;;3.68;97.76
63097;BME280;49185;42.320;23.198;2023-02-28T04:44:16;95359.59;;;3.75;98.01
63097;BME280;49185;42.320;23.198;2023-02-28T04:46:43;95359.34;;;3.49;99.34
63097;BME280;49185;42.320;23.198;2023-02-28T04:49:11;95354.13;;;4.05;98.69
63097;BME280;49185;42.320;23.198;2023-02-28T04:51:37;95354.13;;;4.05;96.24
63097;BME280;49185;42.320;23.198;2023-02-28T04:54:02;95349.41;;;3.94;95.87
63097;BME280;49185;42.320;23.198;2023-02-28T04:56:27;95355.81;;;4.13;95.85
63097;BME280;49185;42.320;23.198;2023-02-28T04:58:53;95360.41;;;4.04;95.62
63097;BME280;49185;42.320;23.198;2023-02-28T05:01:33;95354.72;;;3.72;97.51
63097;BME280;49185;42.320;23.198;2023-02-28T05:04:01;95360.25;;;3.84;97.76
63097;BME280;49185;42.320;23.198;2023-02-28T05:06:28;95368.09;;;3.56;98.87
63097;BME280;49185;42.320;23.198;2023-02-28T05:08:54;95360.34;;;3.69;100.00
63097;BME280;49185;42.320;23.198;2023-02-28T05:11:31;95371.34;;;4.36;98.33
63097;BME280;49185;42.320;23.198;2023-02-28T05:13:57;95366.19;;;4.56;96.38
63097;BME280;49185;42.320;23.198;2023-02-28T05:16:22;95371.41;;;4.43;95.90
63097;BME280;49185;42.320;23.198;2023-02-28T05:18:48;95376.44;;;4.37;96.12
63097;BME280;49185;42.320;23.198;2023-02-28T05:23:48;95376.88;;;4.48;94.66
63097;BME280;49185;42.320;23.198;2023-02-28T05:26:13;95384.34;;;4.37;96.47
63097;BME280;49185;42.320;23.198;2023-02-28T05:28:38;95390.09;;;4.54;93.83
63097;BME280;49185;42.320;23.198;2023-02-28T05:31:04;95394.59;;;4.61;93.90
63097;BME280;49185;42.320;23.198;2023-02-28T05:33:29;95386.28;;;4.64;93.53
63097;BME280;49185;42.320;23.198;2023-02-28T05:35:55;95397.00;;;4.55;93.99
63097;BME280;49185;42.320;23.198;2023-02-28T05:38:20;95400.41;;;4.49;95.03
63097;BME280;49185;42.320;23.198;2023-02-28T05:40:46;95401.91;;;4.65;94.42
63097;BME280;49185;42.320;23.198;2023-02-28T05:43:11;95404.78;;;4.70;94.69
63097;BME280;49185;42.320;23.198;2023-02-28T05:45:37;95417.53;;;4.67;94.70
63097;BME280;49185;42.320;23.198;2023-02-28T05:48:02;95417.72;;;4.65;94.92
63097;BME280;49185;42.320;23.198;2023-02-28T05:50:28;95420.16;;;4.67;94.82
63097;BME280;49185;42.320;23.198;2023-02-28T05:52:53;95430.16;;;4.43;96.04
63097;BME280;49185;42.320;23.198;2023-02-28T05:55:18;95424.22;;;4.06;98.03
63097;BME280;49185;42.320;23.198;2023-02-28T05:57:44;95431.31;;;4.34;99.49
63097;BME280;49185;42.320;23.198;2023-02-28T06:00:10;95425.34;;;4.88;97.63
63097;BME280;49185;42.320;23.198;2023-02-28T06:02:38;95426.19;;;4.89;97.50
63097;BME280;49185;42.320;23.198;2023-02-28T06:05:04;95425.53;;;5.28;95.00
63097;BME280;49185;42.320;23.198;2023-02-28T06:07:30;95430.38;;;5.25;93.71
63097;BME280;49185;42.320;23.198;2023-02-28T06:09:55;95429.63;;;4.54;96.27
63097;BME280;49185;42.320;23.198;2023-02-28T06:12:21;95434.63;;;4.43;97.87
63097;BME280;49185;42.320;23.198;2023-02-28T06:14:46;95434.28;;;4.52;98.33
63097;BME280;49185;42.320;23.198;2023-02-28T06:17:11;95439.22;;;4.69;98.42
63097;BME280;49185;42.320;23.198;2023-02-28T06:19:38;95449.00;;;5.17;95.05
63097;BME280;49185;42.320;23.198;2023-02-28T06:22:03;95451.97;;;5.48;93.06
63097;BME280;49185;42.320;23.198;2023-02-28T06:24:30;95455.00;;;4.97;94.70
63097;BME280;49185;42.320;23.198;2023-02-28T06:26:55;95459.69;;;5.02;95.90
63097;BME280;49185;42.320;23.198;2023-02-28T06:29:21;95459.91;;;5.55;94.98
63097;BME280;49185;42.320;23.198;2023-02-28T06:31:47;95464.97;;;5.02;94.68
63097;BME280;49185;42.320;23.198;2023-02-28T06:34:13;95471.16;;;4.52;96.94
63097;BME280;49185;42.320;23.198;2023-02-28T06:36:40;95465.59;;;4.69;97.44
63097;BME280;49185;42.320;23.198;2023-02-28T06:39:07;95460.94;;;4.71;96.52
63097;BME280;49185;42.320;23.198;2023-02-28T06:41:34;95465.13;;;4.59;97.07
63097;BME280;49185;42.320;23.198;2023-02-28T06:43:59;95461.34;;;4.68;98.02
63097;BME280;49185;42.320;23.198;2023-02-28T06:46:25;95459.47;;;4.97;97.84
63097;BME280;49185;42.320;23.198;2023-02-28T06:48:50;95455.91;;;4.76;96.95
63097;BME280;49185;42.320;23.198;2023-02-28T06:51:18;95457.44;;;4.57;98.06
63097;BME280;49185;42.320;23.198;2023-02-28T06:53:44;95463.56;;;4.71;98.20
63097;BME280;49185;42.320;23.198;2023-02-28T06:56:12;95461.41;;;4.81;98.62
63097;BME280;49185;42.320;23.198;2023-02-28T06:58:38;95453.19;;;4.98;97.13
63097;BME280;49185;42.320;23.198;2023-02-28T07:01:04;95457.88;;;5.02;96.67
63097;BME280;49185;42.320;23.198;2023-02-28T07:03:32;95454.69;;;5.82;93.99
63097;BME280;49185;42.320;23.198;2023-02-28T07:05:57;95460.16;;;5.74;92.37
63097;BME280;49185;42.320;23.198;2023-02-28T07:08:23;95465.31;;;5.33;94.29
63097;BME280;49185;42.320;23.198;2023-02-28T07:10:53;95454.88;;;5.74;93.22
63097;BME280;49185;42.320;23.198;2023-02-28T07:13:19;95451.31;;;6.41;88.98
63097;BME280;49185;42.320;23.198;2023-02-28T07:18:20;95452.06;;;6.82;86.07
63097;BME280;49185;42.320;23.198;2023-02-28T07:20:46;95432.13;;;6.86;85.53
63097;BME280;49185;42.320;23.198;2023-02-28T07:23:11;95434.16;;;6.91;85.88
63097;BME280;49185;42.320;23.198;2023-02-28T07:25:36;95439.47;;;7.36;82.50
63097;BME280;49185;42.320;23.198;2023-02-28T07:28:02;95434.75;;;6.99;84.26
63097;BME280;49185;42.320;23.198;2023-02-28T07:30:27;95433.75;;;6.87;86.02
63097;BME280;49185;42.320;23.198;2023-02-28T07:32:53;95431.19;;;6.14;89.93
63097;BME280;49185;42.320;23.198;2023-02-28T07:35:18;95436.59;;;5.79;90.50
63097;BME280;49185;42.320;23.198;2023-02-28T07:37:43;95435.19;;;5.83;91.89
63097;BME280;49185;42.320;23.198;2023-02-28T07:40:10;95428.09;;;7.74;83.79
63097;BME280;49185;42.320;23.198;2023-02-28T07:42:37;95440.94;;;7.70;83.67
63097;BME280;49185;42.320;23.198;2023-02-28T07:45:02;95436.69;;;7.63;82.13
63097;BME280;49185;42.320;23.198;2023-02-28T07:47:31;95442.09;;;8.38;79.58
63097;BME280;49185;42.320;23.198;2023-02-28T07:49:57;95440.66;;;8.42;81.61
63097;BME280;49185;42.320;23.198;2023-02-28T07:52:23;95442.69;;;9.58;75.56
63097;BME280;49185;42.320;23.198;2023-02-28T07:54:50;95439.94;;;9.34;76.07
63097;BME280;49185;42.320;23.198;2023-02-28T07:57:15;95438.81;;;6.95;85.59
63097;BME280;49185;42.320;23.198;2023-02-28T07:59:41;95437.97;;;7.01;88.58
63097;BME280;49185;42.320;23.198;2023-02-28T08:02:08;95433.78;;;8.60;80.83
63097;BME280;49185;42.320;23.198;2023-02-28T08:04:34;95433.00;;;8.78;79.97
63097;BME280;49185;42.320;23.198;2023-02-28T08:07:00;95429.66;;;8.39;82.62
63097;BME280;49185;42.320;23.198;2023-02-28T08:09:25;95426.22;;;9.67;78.14
63097;BME280;49185;42.320;23.198;2023-02-28T08:11:51;95426.53;;;10.32;74.80
63097;BME280;49185;42.320;23.198;2023-02-28T08:14:16;95429.13;;;10.50;73.81
63097;BME280;49185;42.320;23.198;2023-02-28T08:16:42;95430.63;;;10.70;72.38
63097;BME280;49185;42.320;23.198;2023-02-28T08:19:07;95430.53;;;9.68;76.41
63097;BME280;49185;42.320;23.198;2023-02-28T08:21:32;95430.84;;;10.56;75.47
63097;BME280;49185;42.320;23.198;2023-02-28T08:23:59;95430.00;;;11.55;69.84
63097;BME280;49185;42.320;23.198;2023-02-28T08:26:24;95435.69;;;10.05;73.47
63097;BME280;49185;42.320;23.198;2023-02-28T08:28:50;95432.25;;;10.59;73.19
63097;BME280;49185;42.320;23.198;2023-02-28T08:31:16;95442.47;;;9.59;75.40
63097;BME280;49185;42.320;23.198;2023-02-28T08:33:42;95435.41;;;9.83;76.27
63097;BME280;49185;42.320;23.198;2023-02-28T08:36:08;95438.34;;;9.94;75.29
63097;BME280;49185;42.320;23.198;2023-02-28T08:38:35;95447.47;;;9.98;75.68
63097;BME280;49185;42.320;23.198;2023-02-28T08:41:04;95430.38;;;10.36;74.11
63097;BME280;49185;42.320;23.198;2023-02-28T08:43:29;95432.91;;;10.78;73.51
63097;BME280;49185;42.320;23.198;2023-02-28T08:45:55;95439.06;;;10.90;71.34
63097;BME280;49185;42.320;23.198;2023-02-28T08:48:21;95440.47;;;10.15;74.95
63097;BME280;49185;42.320;23.198;2023-02-28T08:51:01;95434.19;;;10.40;74.07
63097;BME280;49185;42.320;23.198;2023-02-28T08:53:26;95441.47;;;11.04;71.95
63097;BME280;49185;42.320;23.198;2023-02-28T08:55:59;95434.88;;;10.71;73.71
63097;BME280;49185;42.320;23.198;2023-02-28T08:58:26;95433.75;;;11.43;71.00
63097;BME280;49185;42.320;23.198;2023-02-28T09:00:52;95436.63;;;10.65;73.97
63097;BME280;49185;42.320;23.198;2023-02-28T09:03:17;95432.69;;;10.91;75.18
63097;BME280;49185;42.320;23.198;2023-02-28T09:06:00;95433.00;;;11.88;71.05
63097;BME280;49185;42.320;23.198;2023-02-28T09:08:27;95422.63;;;11.05;73.32
63097;BME280;49185;42.320;23.198;2023-02-28T09:10:53;95424.13;;;11.42;71.75
63097;BME280;49185;42.320;23.198;2023-02-28T09:13:18;95424.31;;;11.23;72.96
63097;BME280;49185;42.320;23.198;2023-02-28T09:15:44;95428.03;;;11.91;69.90
63097;BME280;49185;42.320;23.198;2023-02-28T09:18:10;95424.19;;;12.50;67.30
63097;BME280;49185;42.320;23.198;2023-02-28T09:20:40;95421.38;;;12.57;66.52
63097;BME280;49185;42.320;23.198;2023-02-28T09:23:06;95419.97;;;12.03;70.27
63097;BME280;49185;42.320;23.198;2023-02-28T09:25:32;95426.25;;;12.99;65.54
63097;BME280;49185;42.320;23.198;2023-02-28T09:27:58;95421.56;;;13.06;64.22
63097;BME280;49185;42.320;23.198;2023-02-28T09:30:23;95420.69;;;13.22;63.77
63097;BME280;49185;42.320;23.198;2023-02-28T09:32:48;95411.06;;;13.21;64.65
63097;BME280;49185;42.320;23.198;2023-02-28T09:35:14;95411.06;;;13.21;63.58
63097;BME280;49185;42.320;23.198;2023-02-28T09:37:39;95410.69;;;12.73;64.63
63097;BME280;49185;42.320;23.198;2023-02-28T09:40:05;95405.50;;;13.45;61.29
63097;BME280;49185;42.320;23.198;2023-02-28T09:42:33;95403.13;;;12.48;66.81
63097;BME280;49185;42.320;23.198;2023-02-28T09:45:02;95405.91;;;13.15;65.94
63097;BME280;49185;42.320;23.198;2023-02-28T09:47:34;95395.66;;;13.73;60.59
63097;BME280;49185;42.320;23.198;2023-02-28T09:52:53;95396.25;;;12.19;67.38
63097;BME280;49185;42.320;23.198;2023-02-28T09:55:24;95396.63;;;13.89;62.86
63097;BME280;49185;42.320;23.198;2023-02-28T09:57:50;95390.34;;;14.05;60.73
63097;BME280;49185;42.320;23.198;2023-02-28T10:00:30;95385.13;;;14.20;60.55
63097;BME280;49185;42.320;23.198;2023-02-28T10:05:53;95373.44;;;14.64;58.23
63097;BME280;49185;42.320;23.198;2023-02-28T10:08:30;95381.88;;;14.13;62.83
63097;BME280;49185;42.320;23.198;2023-02-28T10:10:59;95366.91;;;14.55;60.88
63097;BME280;49185;42.320;23.198;2023-02-28T10:13:33;95362.16;;;14.62;60.43
63097;BME280;49185;42.320;23.198;2023-02-28T10:16:08;95360.41;;;14.08;60.97
63097;BME280;49185;42.320;23.198;2023-02-28T10:21:35;95356.53;;;13.66;65.84
63097;BME280;49185;42.320;23.198;2023-02-28T10:24:19;95354.28;;;13.80;62.19
63097;BME280;49185;42.320;23.198;2023-02-28T10:26:47;95338.03;;;13.60;59.77
63097;BME280;49185;42.320;23.198;2023-02-28T10:29:13;95337.38;;;13.75;62.19
63097;BME280;49185;42.320;23.198;2023-02-28T10:31:39;95329.25;;;13.64;63.26
63097;BME280;49185;42.320;23.198;2023-02-28T10:34:05;95320.94;;;13.34;61.76
63097;BME280;49185;42.320;23.198;2023-02-28T10:36:30;95329.06;;;13.00;62.32
63097;BME280;49185;42.320;23.198;2023-02-28T10:38:56;95320.53;;;13.03;63.45
63097;BME280;49185;42.320;23.198;2023-02-28T10:41:32;95322.41;;;13.02;63.41
63097;BME280;49185;42.320;23.198;2023-02-28T10:44:21;95311.31;;;13.60;61.48
63097;BME280;49185;42.320;23.198;2023-02-28T10:46:48;95305.59;;;13.51;60.66
63097;BME280;49185;42.320;23.198;2023-02-28T10:49:28;95310.03;;;13.18;63.55
63097;BME280;49185;42.320;23.198;2023-02-28T10:51:59;95315.56;;;13.11;63.20
63097;BME280;49185;42.320;23.198;2023-02-28T10:57:08;95310.41;;;12.83;62.90
63097;BME280;49185;42.320;23.198;2023-02-28T10:59:34;95307.22;;;12.64;63.21
63097;BME280;49185;42.320;23.198;2023-02-28T11:02:00;95305.16;;;12.49;65.03
63097;BME280;49185;42.320;23.198;2023-02-28T11:06:58;95294.75;;;12.30;65.29
63097;BME280;49185;42.320;23.198;2023-02-28T11:09:30;95299.47;;;12.23;65.27
63097;BME280;49185;42.320;23.198;2023-02-28T11:11:56;95293.19;;;12.51;64.66
63097;BME280;49185;42.320;23.198;2023-02-28T11:14:29;95297.09;;;12.27;64.34
63097;BME280;49185;42.320;23.198;2023-02-28T11:16:59;95297.09;;;12.27;64.22
63097;BME280;49185;42.320;23.198;2023-02-28T11:19:40;95290.91;;;12.21;65.21
63097;BME280;49185;42.320;23.198;2023-02-28T11:22:09;95296.56;;;11.91;66.55
63097;BME280;49185;42.320;23.198;2023-02-28T11:24:39;95284.44;;;11.83;66.91
63097;BME280;49185;42.320;23.198;2023-02-28T11:27:25;95277.97;;;11.62;66.48
63097;BME280;49185;42.320;23.198;2023-02-28T11:29:50;95276.69;;;11.82;64.94
63097;BME280;49185;42.320;23.198;2023-02-28T11:32:19;95280.19;;;11.99;64.48
63097;BME280;49185;42.320;23.198;2023-02-28T11:34:47;95283.44;;;11.55;67.05
63097;BME280;49185;42.320;23.198;2023-02-28T11:37:25;95290.03;;;11.36;65.73
63097;BME280;49185;42.320;23.198;2023-02-28T11:39:52;95273.50;;;11.51;66.61
63097;BME280;49185;42.320;23.198;2023-02-28T11:42:50;95285.63;;;11.75;65.74
63097;BME280;49185;42.320;23.198;2023-02-28T11:48:29;95272.94;;;11.83;66.22
63097;BME280;49185;42.320;23.198;2023-02-28T11:51:47;95276.69;;;11.99;63.31
63097;BME280;49185;42.320;23.198;2023-02-28T11:56:51;95278.69;;;11.74;64.37
63097;BME280;49185;42.320;23.198;2023-02-28T12:10:24;95258.94;;;12.43;62.62
63097;BME280;49185;42.320;23.198;2023-02-28T12:28:53;95250.00;;;12.15;63.57
63097;BME280;49185;42.320;23.198;2023-02-28T12:33:51;95246.16;;;12.06;63.63
63097;BME280;49185;42.320;23.198;2023-02-28T12:36:19;95237.75;;;11.98;63.67
63097;BME280;49185;42.320;23.198;2023-02-28T12:38:48;95245.16;;;11.45;65.98
63097;BME280;49185;42.320;23.198;2023-02-28T12:41:19;95248.44;;;11.35;67.26
63097;BME280;49185;42.320;23.198;2023-02-28T12:43:54;95244.50;;;11.37;66.52
63097;BME280;49185;42.320;23.198;2023-02-28T12:46:33;95250.41;;;11.39;65.65
63097;BME280;49185;42.320;23.198;2023-02-28T12:49:10;95241.09;;;11.25;65.47
63097;BME280;49185;42.320;23.198;2023-02-28T12:51:37;95249.66;;;11.27;66.53
63097;BME280;49185;42.320;23.198;2023-02-28T13:02:26;95244.69;;;11.02;67.50
63097;BME280;49185;42.320;23.198;2023-02-28T13:10:16;95223.47;;;11.07;66.98
63097;BME280;49185;42.320;23.198;2023-02-28T13:12:51;95225.19;;;11.47;65.36
63097;BME280;49185;42.320;23.198;2023-02-28T13:17:48;95220.47;;;11.04;66.42
63097;BME280;49185;42.320;23.198;2023-02-28T13:20:17;95218.94;;;11.08;66.11
63097;BME280;49185;42.320;23.198;2023-02-28T13:22:45;95224.78;;;11.21;66.03
63097;BME280;49185;42.320;23.198;2023-02-28T13:27:58;95223.47;;;11.07;66.67
63097;BME280;49185;42.320;23.198;2023-02-28T13:33:35;95216.06;;;11.09;66.51
63097;BME280;49185;42.320;23.198;2023-02-28T13:38:36;95219.66;;;10.74;66.59
63097;BME280;49185;42.320;23.198;2023-02-28T13:44:21;95205.19;;;10.82;66.96
63097;BME280;49185;42.320;23.198;2023-02-28T13:49:32;95205.44;;;10.80;66.85
63097;BME280;49185;42.320;23.198;2023-02-28T13:57:49;95210.97;;;10.50;66.12
63097;BME280;49185;42.320;23.198;2023-02-28T14:03:07;95208.41;;;10.84;64.92
63097;BME280;49185;42.320;23.198;2023-02-28T14:05:36;95207.41;;;10.73;65.88
63097;BME280;49185;42.320;23.198;2023-02-28T14:08:15;95202.44;;;10.77;65.15
63097;BME280;49185;42.320;23.198;2023-02-28T14:10:42;95215.06;;;10.98;64.82
63097;BME280;49185;42.320;23.198;2023-02-28T14:15:46;95209.88;;;10.63;65.13
63097;BME280;49185;42.320;23.198;2023-02-28T14:18:32;95209.44;;;10.83;64.32
63097;BME280;49185;42.320;23.198;2023-02-28T14:21:14;95200.06;;;11.09;63.61
63097;BME280;49185;42.320;23.198;2023-02-28T14:26:29;95198.44;;;10.62;65.55
63097;BME280;49185;42.320;23.198;2023-02-28T14:37:51;95206.03;;;10.71;65.37
63097;BME280;49185;42.320;23.198;2023-02-28T14:40:26;95207.19;;;10.34;66.06
63097;BME280;49185;42.320;23.198;2023-02-28T14:43:01;95215.25;;;10.27;66.71
63097;BME280;49185;42.320;23.198;2023-02-28T14:45:29;95211.09;;;10.43;67.10
63097;BME280;49185;42.320;23.198;2023-02-28T14:47:56;95201.97;;;10.39;66.23
63097;BME280;49185;42.320;23.198;2023-02-28T14:50:27;95208.94;;;10.05;68.04
63097;BME280;49185;42.320;23.198;2023-02-28T14:52:55;95215.31;;;10.04;69.11
63097;BME280;49185;42.320;23.198;2023-02-28T14:55:44;95217.59;;;9.77;70.31
63097;BME280;49185;42.320;23.198;2023-02-28T14:58:30;95213.22;;;9.82;69.56
63097;BME280;49185;42.320;23.198;2023-02-28T15:01:00;95217.38;;;9.55;70.10
63097;BME280;49185;42.320;23.198;2023-02-28T15:05:57;95231.44;;;9.43;72.21
63097;BME280;49185;42.320;23.198;2023-02-28T15:08:23;95230.25;;;9.27;72.94
63097;BME280;49185;42.320;23.198;2023-02-28T15:13:48;95240.94;;;9.09;73.90
63097;BME280;49185;42.320;23.198;2023-02-28T15:16:19;95236.53;;;9.33;73.02
63097;BME280;49185;42.320;23.198;2023-02-28T15:19:00;95231.34;;;9.08;72.91
63097;BME280;49185;42.320;23.198;2023-02-28T15:21:31;95232.41;;;9.07;73.94
63097;BME280;49185;42.320;23.198;2023-02-28T15:24:12;95233.66;;;9.04;73.38
63097;BME280;49185;42.320;23.198;2023-02-28T15:26:46;95234.13;;;9.01;73.81
63097;BME280;49185;42.320;23.198;2023-02-28T15:29:19;95234.63;;;9.22;72.57
63097;BME280;49185;42.320;23.198;2023-02-28T15:31:48;95237.00;;;9.11;73.52
63097;BME280;49185;42.320;23.198;2023-02-28T15:34:20;95229.34;;;9.34;72.22
63097;BME280;49185;42.320;23.198;2023-02-28T15:36:48;95223.44;;;9.20;72.37
63097;BME280;49185;42.320;23.198;2023-02-28T15:39:27;95228.25;;;9.11;72.46